sensor_id;sensor_type;location;lat;lon;timestamp;pressure;altitude;pressure_sealevel;temperature;humidity
38289;BME280;24092;53.370;-6.588;2023-10-13T00:01:07;99638.36;;;9.76;100.00
38289;BME280;24092;53.370;-6.588;2023-10-13T00:03:34;99638.51;;;9.15;100.00
38289;BME280;24092;53.370;-6.588;2023-10-13T00:06:01;99636.33;;;8.77;100.00
38289;BME280;24092;53.370;-6.588;2023-10-13T00:08:28;99637.98;;;9.26;100.00
38289;BME280;24092;53.370;-6.588;2023-10-13T00:10:56;99618.57;;;7.12;100.00
38289;BME280;24092;53.370;-6.588;2023-10-13T00:13:24;99611.84;;;8.57;100.00
38289;BME280;24092;53.370;-6.588;2023-10-13T00:15:51;99615.37;;;9.03;100.00
38289;BME280;24092;53.370;-6.588;2023-10-13T00:18:19;99616.01;;;9.99;100.00
38289;BME280;24092;53.370;-6.588;2023-10-13T00:20:46;99610.03;;;8.74;100.00
38289;BME280;24092;53.370;-6.588;2023-10-13T00:23:13;99604.48;;;8.45;100.00
38289;BME280;24092;53.370;-6.588;2023-10-13T00:25:40;99601.35;;;8.21;100.00
38289;BME280;24092;53.370;-6.588;2023-10-13T00:28:06;99607.78;;;8.78;100.00
38289;BME280;24092;53.370;-6.588;2023-10-13T00:30:33;99605.83;;;9.39;100.00
38289;BME280;24092;53.370;-6.588;2023-10-13T00:33:01;99596.48;;;8.97;100.00
38289;BME280;24092;53.370;-6.588;2023-10-13T00:35:29;99579.72;;;7.79;100.00
38289;BME280;24092;53.370;-6.588;2023-10-13T00:37:56;99578.81;;;8.92;100.00
38289;BME280;24092;53.370;-6.588;2023-10-13T00:40:24;99574.20;;;9.04;100.00
38289;BME280;24092;53.370;-6.588;2023-10-13T00:42:52;99564.48;;;10.47;100.00
38289;BME280;24092;53.370;-6.588;2023-10-13T00:45:21;99560.75;;;8.82;100.00
38289;BME280;24092;53.370;-6.588;2023-10-13T00:47:49;99556.58;;;9.00;100.00
38289;BME280;24092;53.370;-6.588;2023-10-13T00:50:17;99553.12;;;7.87;100.00
38289;BME280;24092;53.370;-6.588;2023-10-13T00:52:46;99541.46;;;7.34;100.00
38289;BME280;24092;53.370;-6.588;2023-10-13T00:55:14;99527.38;;;7.92;100.00
38289;BME280;24092;53.370;-6.588;2023-10-13T00:57:42;99520.87;;;7.80;100.00
38289;BME280;24092;53.370;-6.588;2023-10-13T01:00:10;99517.51;;;7.39;100.00
38289;BME280;24092;53.370;-6.588;2023-10-13T01:02:37;99513.96;;;8.09;100.00
38289;BME280;24092;53.370;-6.588;2023-10-13T01:05:05;99510.54;;;8.12;100.00
38289;BME280;24092;53.370;-6.588;2023-10-13T01:07:33;99510.19;;;8.16;100.00
38289;BME280;24092;53.370;-6.588;2023-10-13T01:10:01;99507.81;;;7.35;100.00
38289;BME280;24092;53.370;-6.588;2023-10-13T01:12:28;99504.60;;;7.46;100.00
38289;BME280;24092;53.370;-6.588;2023-10-13T01:14:56;99498.98;;;8.84;100.00
38289;BME280;24092;53.370;-6.588;2023-10-13T01:17:23;99499.93;;;8.54;100.00
38289;BME280;24092;53.370;-6.588;2023-10-13T01:19:50;99486.44;;;10.42;100.00
38289;BME280;24092;53.370;-6.588;2023-10-13T01:22:17;99480.37;;;8.89;100.00
38289;BME280;24092;53.370;-6.588;2023-10-13T01:24:44;99470.92;;;8.67;100.00
38289;BME280;24092;53.370;-6.588;2023-10-13T01:27:11;99469.30;;;8.36;100.00
38289;BME280;24092;53.370;-6.588;2023-10-13T01:29:38;99462.89;;;8.86;100.00
38289;BME280;24092;53.370;-6.588;2023-10-13T01:32:05;99461.08;;;8.95;100.00
38289;BME280;24092;53.370;-6.588;2023-10-13T01:34:32;99460.58;;;8.86;100.00
38289;BME280;24092;53.370;-6.588;2023-10-13T01:37:00;99461.22;;;8.66;100.00
38289;BME280;24092;53.370;-6.588;2023-10-13T01:39:27;99460.77;;;9.11;100.00
38289;BME280;24092;53.370;-6.588;2023-10-13T01:41:54;99454.23;;;8.51;100.00
38289;BME280;24092;53.370;-6.588;2023-10-13T01:44:22;99454.18;;;8.12;100.00
38289;BME280;24092;53.370;-6.588;2023-10-13T01:46:50;99445.51;;;8.96;100.00
38289;BME280;24092;53.370;-6.588;2023-10-13T01:49:17;99437.82;;;9.09;100.00
38289;BME280;24092;53.370;-6.588;2023-10-13T01:51:44;99430.30;;;8.47;100.00
38289;BME280;24092;53.370;-6.588;2023-10-13T01:54:10;99421.86;;;9.45;100.00
38289;BME280;24092;53.370;-6.588;2023-10-13T01:56:37;99423.30;;;8.75;100.00
38289;BME280;24092;53.370;-6.588;2023-10-13T01:59:04;99416.16;;;9.14;100.00
38289;BME280;24092;53.370;-6.588;2023-10-13T02:01:33;99410.62;;;9.73;100.00
38289;BME280;24092;53.370;-6.588;2023-10-13T02:04:01;99408.49;;;9.98;100.00
38289;BME280;24092;53.370;-6.588;2023-10-13T02:06:29;99406.46;;;9.20;100.00
38289;BME280;24092;53.370;-6.588;2023-10-13T02:08:57;99398.01;;;9.22;100.00
38289;BME280;24092;53.370;-6.588;2023-10-13T02:11:24;99391.10;;;9.68;100.00
38289;BME280;24092;53.370;-6.588;2023-10-13T02:13:50;99385.80;;;8.89;100.00
38289;BME280;24092;53.370;-6.588;2023-10-13T02:16:17;99384.68;;;8.40;100.00
38289;BME280;24092;53.370;-6.588;2023-10-13T02:18:44;99378.66;;;8.62;100.00
38289;BME280;24092;53.370;-6.588;2023-10-13T02:21:11;99367.08;;;9.88;100.00
38289;BME280;24092;53.370;-6.588;2023-10-13T02:23:39;99360.35;;;8.14;100.00
38289;BME280;24092;53.370;-6.588;2023-10-13T02:26:06;99356.97;;;7.23;100.00
38289;BME280;24092;53.370;-6.588;2023-10-13T02:28:33;99358.40;;;7.23;100.00
38289;BME280;24092;53.370;-6.588;2023-10-13T02:31:02;99353.05;;;8.19;100.00
38289;BME280;24092;53.370;-6.588;2023-10-13T02:33:30;99345.07;;;8.30;100.00
38289;BME280;24092;53.370;-6.588;2023-10-13T02:35:58;99337.19;;;7.29;100.00
38289;BME280;24092;53.370;-6.588;2023-10-13T02:38:25;99327.64;;;5.95;100.00
38289;BME280;24092;53.370;-6.588;2023-10-13T02:40:53;99326.50;;;6.87;100.00
38289;BME280;24092;53.370;-6.588;2023-10-13T02:43:21;99321.35;;;6.40;100.00
38289;BME280;24092;53.370;-6.588;2023-10-13T02:45:55;99324.09;;;7.57;100.00
38289;BME280;24092;53.370;-6.588;2023-10-13T02:48:24;99320.22;;;7.49;100.00
38289;BME280;24092;53.370;-6.588;2023-10-13T02:50:57;99308.89;;;8.91;100.00
38289;BME280;24092;53.370;-6.588;2023-10-13T02:53:24;99307.64;;;8.33;100.00
38289;BME280;24092;53.370;-6.588;2023-10-13T02:55:51;99297.39;;;8.11;100.00
38289;BME280;24092;53.370;-6.588;2023-10-13T02:58:19;99294.29;;;8.46;100.00
38289;BME280;24092;53.370;-6.588;2023-10-13T03:00:46;99287.83;;;9.21;100.00
38289;BME280;24092;53.370;-6.588;2023-10-13T03:03:13;99283.07;;;8.56;100.00
38289;BME280;24092;53.370;-6.588;2023-10-13T03:05:40;99282.47;;;8.62;100.00
38289;BME280;24092;53.370;-6.588;2023-10-13T03:08:07;99286.44;;;7.58;100.00
38289;BME280;24092;53.370;-6.588;2023-10-13T03:10:33;99286.38;;;7.48;100.00
38289;BME280;24092;53.370;-6.588;2023-10-13T03:13:01;99286.29;;;6.73;100.00
38289;BME280;24092;53.370;-6.588;2023-10-13T03:15:31;99289.35;;;7.25;100.00
38289;BME280;24092;53.370;-6.588;2023-10-13T03:17:58;99292.04;;;7.01;100.00
38289;BME280;24092;53.370;-6.588;2023-10-13T03:20:25;99284.28;;;5.34;100.00
38289;BME280;24092;53.370;-6.588;2023-10-13T03:22:52;99277.73;;;5.63;100.00
38289;BME280;24092;53.370;-6.588;2023-10-13T03:25:19;99273.05;;;3.96;100.00
38289;BME280;24092;53.370;-6.588;2023-10-13T03:27:46;99264.43;;;4.73;100.00
38289;BME280;24092;53.370;-6.588;2023-10-13T03:30:14;99270.21;;;6.84;100.00
38289;BME280;24092;53.370;-6.588;2023-10-13T03:32:41;99272.45;;;6.89;100.00
38289;BME280;24092;53.370;-6.588;2023-10-13T03:35:09;99274.40;;;4.95;100.00
38289;BME280;24092;53.370;-6.588;2023-10-13T03:37:35;99267.01;;;5.48;100.00
38289;BME280;24092;53.370;-6.588;2023-10-13T03:40:04;99271.27;;;6.13;100.00
38289;BME280;24092;53.370;-6.588;2023-10-13T03:42:31;99270.87;;;7.77;100.00
38289;BME280;24092;53.370;-6.588;2023-10-13T03:44:58;99262.35;;;6.30;100.00
38289;BME280;24092;53.370;-6.588;2023-10-13T03:47:26;99254.38;;;5.25;100.00
38289;BME280;24092;53.370;-6.588;2023-10-13T03:49:53;99247.71;;;5.92;100.00
38289;BME280;24092;53.370;-6.588;2023-10-13T03:52:20;99247.28;;;5.88;100.00
38289;BME280;24092;53.370;-6.588;2023-10-13T03:54:48;99246.16;;;5.73;100.00
38289;BME280;24092;53.370;-6.588;2023-10-13T03:57:14;99250.21;;;7.15;100.00
38289;BME280;24092;53.370;-6.588;2023-10-13T03:59:41;99247.38;;;6.02;100.00
38289;BME280;24092;53.370;-6.588;2023-10-13T04:02:09;99250.30;;;5.55;100.00
38289;BME280;24092;53.370;-6.588;2023-10-13T04:04:36;99247.61;;;5.33;100.00
38289;BME280;24092;53.370;-6.588;2023-10-13T04:07:03;99228.29;;;5.53;100.00
38289;BME280;24092;53.370;-6.588;2023-10-13T04:09:30;99221.24;;;5.06;100.00
38289;BME280;24092;53.370;-6.588;2023-10-13T04:11:58;99224.20;;;5.22;100.00
38289;BME280;24092;53.370;-6.588;2023-10-13T04:14:25;99230.05;;;5.05;100.00
38289;BME280;24092;53.370;-6.588;2023-10-13T04:16:52;99231.96;;;4.34;100.00
38289;BME280;24092;53.370;-6.588;2023-10-13T04:19:19;99231.87;;;4.22;100.00
38289;BME280;24092;53.370;-6.588;2023-10-13T04:21:46;99226.67;;;5.79;100.00
38289;BME280;24092;53.370;-6.588;2023-10-13T04:24:14;99231.65;;;4.59;100.00
38289;BME280;24092;53.370;-6.588;2023-10-13T04:26:40;99228.02;;;5.32;100.00
38289;BME280;24092;53.370;-6.588;2023-10-13T04:29:07;99231.61;;;5.13;100.00
38289;BME280;24092;53.370;-6.588;2023-10-13T04:31:34;99239.47;;;5.04;100.00
38289;BME280;24092;53.370;-6.588;2023-10-13T04:34:01;99242.68;;;5.18;100.00
38289;BME280;24092;53.370;-6.588;2023-10-13T04:36:28;99243.95;;;4.39;100.00
38289;BME280;24092;53.370;-6.588;2023-10-13T04:38:56;99241.65;;;4.60;100.00
38289;BME280;24092;53.370;-6.588;2023-10-13T04:41:25;99244.41;;;4.22;100.00
38289;BME280;24092;53.370;-6.588;2023-10-13T04:43:52;99247.50;;;3.39;100.00
38289;BME280;24092;53.370;-6.588;2023-10-13T04:46:20;99251.85;;;3.52;100.00
38289;BME280;24092;53.370;-6.588;2023-10-13T04:48:46;99262.51;;;2.71;100.00
38289;BME280;24092;53.370;-6.588;2023-10-13T04:51:13;99261.07;;;2.51;100.00
38289;BME280;24092;53.370;-6.588;2023-10-13T04:53:40;99259.72;;;3.10;100.00
38289;BME280;24092;53.370;-6.588;2023-10-13T04:56:07;99272.68;;;2.62;100.00
38289;BME280;24092;53.370;-6.588;2023-10-13T04:58:34;99283.49;;;2.88;100.00
38289;BME280;24092;53.370;-6.588;2023-10-13T05:01:01;99275.83;;;4.10;100.00
38289;BME280;24092;53.370;-6.588;2023-10-13T05:03:28;99273.57;;;4.00;100.00
38289;BME280;24092;53.370;-6.588;2023-10-13T05:05:55;99278.10;;;5.49;100.00
38289;BME280;24092;53.370;-6.588;2023-10-13T05:08:22;99284.96;;;4.68;100.00
38289;BME280;24092;53.370;-6.588;2023-10-13T05:10:49;99292.00;;;2.77;100.00
38289;BME280;24092;53.370;-6.588;2023-10-13T05:13:16;99290.42;;;4.96;100.00
38289;BME280;24092;53.370;-6.588;2023-10-13T05:15:43;99283.21;;;4.53;100.00
38289;BME280;24092;53.370;-6.588;2023-10-13T05:18:11;99277.49;;;4.99;100.00
38289;BME280;24092;53.370;-6.588;2023-10-13T05:20:38;99273.66;;;5.63;100.00
38289;BME280;24092;53.370;-6.588;2023-10-13T05:23:04;99274.17;;;4.37;100.00
38289;BME280;24092;53.370;-6.588;2023-10-13T05:25:35;99276.78;;;4.89;100.00
38289;BME280;24092;53.370;-6.588;2023-10-13T05:28:02;99267.59;;;4.57;100.00
38289;BME280;24092;53.370;-6.588;2023-10-13T05:30:31;99268.38;;;4.90;100.00
38289;BME280;24092;53.370;-6.588;2023-10-13T05:32:58;99264.89;;;5.09;100.00
38289;BME280;24092;53.370;-6.588;2023-10-13T05:35:25;99261.98;;;5.44;100.00
38289;BME280;24092;53.370;-6.588;2023-10-13T05:37:52;99262.68;;;6.12;100.00
38289;BME280;24092;53.370;-6.588;2023-10-13T05:40:19;99260.12;;;6.67;100.00
38289;BME280;24092;53.370;-6.588;2023-10-13T05:42:46;99254.78;;;6.81;100.00
38289;BME280;24092;53.370;-6.588;2023-10-13T05:45:13;99253.33;;;9.32;100.00
38289;BME280;24092;53.370;-6.588;2023-10-13T05:47:41;99249.74;;;10.72;100.00
38289;BME280;24092;53.370;-6.588;2023-10-13T05:50:08;99248.64;;;9.17;100.00
38289;BME280;24092;53.370;-6.588;2023-10-13T05:52:36;99243.66;;;10.39;100.00
38289;BME280;24092;53.370;-6.588;2023-10-13T05:55:03;99245.91;;;11.39;100.00
38289;BME280;24092;53.370;-6.588;2023-10-13T05:57:30;99243.68;;;12.79;100.00
38289;BME280;24092;53.370;-6.588;2023-10-13T05:59:57;99238.24;;;13.15;100.00
38289;BME280;24092;53.370;-6.588;2023-10-13T06:02:25;99232.18;;;13.48;100.00
38289;BME280;24092;53.370;-6.588;2023-10-13T06:04:52;99232.28;;;13.65;100.00
38289;BME280;24092;53.370;-6.588;2023-10-13T06:07:19;99229.71;;;13.53;100.00
38289;BME280;24092;53.370;-6.588;2023-10-13T06:09:46;99229.08;;;12.80;100.00
38289;BME280;24092;53.370;-6.588;2023-10-13T06:13:56;99224.17;;;12.54;100.00
38289;BME280;24092;53.370;-6.588;2023-10-13T06:16:23;99215.31;;;13.10;100.00
38289;BME280;24092;53.370;-6.588;2023-10-13T06:18:50;99207.83;;;13.40;100.00
38289;BME280;24092;53.370;-6.588;2023-10-13T06:21:17;99199.88;;;13.80;100.00
38289;BME280;24092;53.370;-6.588;2023-10-13T06:23:45;99186.11;;;13.93;100.00
38289;BME280;24092;53.370;-6.588;2023-10-13T06:26:11;99178.87;;;11.48;100.00
38289;BME280;24092;53.370;-6.588;2023-10-13T06:28:39;99170.94;;;10.42;100.00
38289;BME280;24092;53.370;-6.588;2023-10-13T06:31:12;99164.86;;;10.69;100.00
38289;BME280;24092;53.370;-6.588;2023-10-13T06:33:39;99172.99;;;10.16;100.00
38289;BME280;24092;53.370;-6.588;2023-10-13T06:36:06;99181.31;;;11.60;100.00
38289;BME280;24092;53.370;-6.588;2023-10-13T06:38:33;99189.19;;;13.91;100.00
38289;BME280;24092;53.370;-6.588;2023-10-13T06:41:00;99200.85;;;13.86;100.00
38289;BME280;24092;53.370;-6.588;2023-10-13T06:43:27;99210.12;;;13.36;100.00
38289;BME280;24092;53.370;-6.588;2023-10-13T06:45:55;99219.64;;;12.05;100.00
38289;BME280;24092;53.370;-6.588;2023-10-13T06:48:23;99218.40;;;11.50;100.00
38289;BME280;24092;53.370;-6.588;2023-10-13T06:50:50;99232.33;;;9.93;100.00
38289;BME280;24092;53.370;-6.588;2023-10-13T06:53:18;99245.79;;;8.52;100.00
38289;BME280;24092;53.370;-6.588;2023-10-13T06:55:45;99251.51;;;8.13;100.00
38289;BME280;24092;53.370;-6.588;2023-10-13T06:58:12;99253.12;;;7.53;100.00
38289;BME280;24092;53.370;-6.588;2023-10-13T07:00:39;99256.95;;;7.77;100.00
38289;BME280;24092;53.370;-6.588;2023-10-13T07:03:07;99256.60;;;7.33;100.00
38289;BME280;24092;53.370;-6.588;2023-10-13T07:05:36;99260.06;;;8.28;100.00
38289;BME280;24092;53.370;-6.588;2023-10-13T07:08:04;99267.74;;;8.78;100.00
38289;BME280;24092;53.370;-6.588;2023-10-13T07:10:31;99272.40;;;9.44;100.00
38289;BME280;24092;53.370;-6.588;2023-10-13T07:12:59;99284.07;;;9.08;100.00
38289;BME280;24092;53.370;-6.588;2023-10-13T07:15:25;99297.67;;;9.13;100.00
38289;BME280;24092;53.370;-6.588;2023-10-13T07:17:52;99298.79;;;8.96;100.00
38289;BME280;24092;53.370;-6.588;2023-10-13T07:20:21;99304.63;;;8.68;100.00
38289;BME280;24092;53.370;-6.588;2023-10-13T07:22:48;99314.15;;;8.28;100.00
38289;BME280;24092;53.370;-6.588;2023-10-13T07:25:15;99318.74;;;8.07;100.00
38289;BME280;24092;53.370;-6.588;2023-10-13T07:27:42;99318.48;;;7.88;100.00
38289;BME280;24092;53.370;-6.588;2023-10-13T07:30:10;99311.50;;;9.79;100.00
38289;BME280;24092;53.370;-6.588;2023-10-13T07:32:38;99315.35;;;10.55;100.00
38289;BME280;24092;53.370;-6.588;2023-10-13T07:35:06;99319.91;;;10.58;100.00
38289;BME280;24092;53.370;-6.588;2023-10-13T07:37:33;99329.01;;;10.52;100.00
38289;BME280;24092;53.370;-6.588;2023-10-13T07:39:59;99339.41;;;10.83;100.00
38289;BME280;24092;53.370;-6.588;2023-10-13T07:42:27;99344.22;;;10.12;100.00
38289;BME280;24092;53.370;-6.588;2023-10-13T07:44:54;99346.71;;;9.52;100.00
38289;BME280;24092;53.370;-6.588;2023-10-13T07:47:20;99347.39;;;9.70;100.00
38289;BME280;24092;53.370;-6.588;2023-10-13T07:49:48;99347.15;;;10.10;100.00
38289;BME280;24092;53.370;-6.588;2023-10-13T07:52:15;99346.82;;;10.26;100.00
38289;BME280;24092;53.370;-6.588;2023-10-13T07:54:44;99344.16;;;10.30;100.00
38289;BME280;24092;53.370;-6.588;2023-10-13T07:57:11;99347.89;;;10.29;100.00
38289;BME280;24092;53.370;-6.588;2023-10-13T07:59:38;99353.28;;;9.94;100.00
38289;BME280;24092;53.370;-6.588;2023-10-13T08:02:05;99358.57;;;10.76;100.00
38289;BME280;24092;53.370;-6.588;2023-10-13T08:04:33;99362.80;;;11.62;100.00
38289;BME280;24092;53.370;-6.588;2023-10-13T08:07:00;99372.11;;;11.59;100.00
38289;BME280;24092;53.370;-6.588;2023-10-13T08:09:28;99380.92;;;10.43;100.00
38289;BME280;24092;53.370;-6.588;2023-10-13T08:11:55;99386.26;;;11.71;100.00
38289;BME280;24092;53.370;-6.588;2023-10-13T08:14:22;99395.08;;;11.58;100.00
38289;BME280;24092;53.370;-6.588;2023-10-13T08:16:49;99395.38;;;11.69;100.00
38289;BME280;24092;53.370;-6.588;2023-10-13T08:19:19;99393.41;;;10.91;100.00
38289;BME280;24092;53.370;-6.588;2023-10-13T08:21:47;99397.53;;;10.12;100.00
38289;BME280;24092;53.370;-6.588;2023-10-13T08:24:14;99395.84;;;8.97;100.00
38289;BME280;24092;53.370;-6.588;2023-10-13T08:26:42;99386.88;;;10.28;100.00
38289;BME280;24092;53.370;-6.588;2023-10-13T08:29:09;99389.39;;;10.67;100.00
38289;BME280;24092;53.370;-6.588;2023-10-13T08:31:41;99389.91;;;11.35;100.00
38289;BME280;24092;53.370;-6.588;2023-10-13T08:34:08;99386.37;;;11.64;100.00
38289;BME280;24092;53.370;-6.588;2023-10-13T08:36:35;99385.36;;;11.40;100.00
38289;BME280;24092;53.370;-6.588;2023-10-13T08:39:02;99390.37;;;11.93;100.00
38289;BME280;24092;53.370;-6.588;2023-10-13T08:41:29;99394.65;;;12.55;100.00
38289;BME280;24092;53.370;-6.588;2023-10-13T08:44:02;99397.88;;;11.56;100.00
38289;BME280;24092;53.370;-6.588;2023-10-13T08:46:31;99403.70;;;7.08;100.00
38289;BME280;24092;53.370;-6.588;2023-10-13T08:48:58;99401.52;;;9.44;100.00
38289;BME280;24092;53.370;-6.588;2023-10-13T08:51:25;99408.68;;;8.89;100.00
38289;BME280;24092;53.370;-6.588;2023-10-13T08:53:53;99403.63;;;11.38;100.00
38289;BME280;24092;53.370;-6.588;2023-10-13T08:56:21;99410.64;;;9.19;100.00
38289;BME280;24092;53.370;-6.588;2023-10-13T08:58:49;99410.80;;;9.65;100.00
38289;BME280;24092;53.370;-6.588;2023-10-13T09:01:17;99415.46;;;8.36;100.00
38289;BME280;24092;53.370;-6.588;2023-10-13T09:03:45;99403.23;;;9.63;100.00
38289;BME280;24092;53.370;-6.588;2023-10-13T09:06:13;99404.02;;;9.69;100.00
38289;BME280;24092;53.370;-6.588;2023-10-13T09:08:40;99394.02;;;10.43;100.00
38289;BME280;24092;53.370;-6.588;2023-10-13T09:11:07;99397.11;;;10.00;100.00
38289;BME280;24092;53.370;-6.588;2023-10-13T09:13:35;99396.38;;;11.75;100.00
38289;BME280;24092;53.370;-6.588;2023-10-13T09:16:09;99401.17;;;12.90;100.00
38289;BME280;24092;53.370;-6.588;2023-10-13T09:18:37;99406.07;;;13.37;100.00
38289;BME280;24092;53.370;-6.588;2023-10-13T09:21:04;99410.39;;;12.71;100.00
38289;BME280;24092;53.370;-6.588;2023-10-13T09:23:31;99415.88;;;12.14;100.00
38289;BME280;24092;53.370;-6.588;2023-10-13T09:26:05;99420.12;;;12.72;100.00
38289;BME280;24092;53.370;-6.588;2023-10-13T09:28:32;99417.93;;;8.89;100.00
38289;BME280;24092;53.370;-6.588;2023-10-13T09:30:59;99418.78;;;12.90;100.00
38289;BME280;24092;53.370;-6.588;2023-10-13T09:33:28;99422.60;;;10.83;100.00
38289;BME280;24092;53.370;-6.588;2023-10-13T09:35:55;99427.85;;;10.94;100.00
38289;BME280;24092;53.370;-6.588;2023-10-13T09:38:23;99427.54;;;11.22;100.00
38289;BME280;24092;53.370;-6.588;2023-10-13T09:40:51;99430.02;;;14.34;100.00
38289;BME280;24092;53.370;-6.588;2023-10-13T09:43:19;99433.34;;;14.66;100.00
38289;BME280;24092;53.370;-6.588;2023-10-13T09:45:48;99437.28;;;10.92;100.00
38289;BME280;24092;53.370;-6.588;2023-10-13T09:48:16;99437.74;;;10.76;100.00
38289;BME280;24092;53.370;-6.588;2023-10-13T09:50:48;99445.30;;;13.71;100.00
38289;BME280;24092;53.370;-6.588;2023-10-13T09:53:15;99444.15;;;11.89;100.00
38289;BME280;24092;53.370;-6.588;2023-10-13T09:55:48;99451.19;;;7.21;100.00
38289;BME280;24092;53.370;-6.588;2023-10-13T09:58:18;99451.52;;;8.79;100.00
38289;BME280;24092;53.370;-6.588;2023-10-13T10:00:48;99448.68;;;9.63;100.00
38289;BME280;24092;53.370;-6.588;2023-10-13T10:03:17;99456.71;;;7.43;100.00
38289;BME280;24092;53.370;-6.588;2023-10-13T10:05:55;99461.27;;;7.74;100.00
38289;BME280;24092;53.370;-6.588;2023-10-13T10:08:24;99463.22;;;10.45;100.00
38289;BME280;24092;53.370;-6.588;2023-10-13T10:10:59;99469.45;;;8.53;100.00
38289;BME280;24092;53.370;-6.588;2023-10-13T10:13:35;99466.21;;;11.51;100.00
38289;BME280;24092;53.370;-6.588;2023-10-13T10:16:10;99467.78;;;12.87;100.00
38289;BME280;24092;53.370;-6.588;2023-10-13T10:18:37;99475.78;;;13.93;100.00
38289;BME280;24092;53.370;-6.588;2023-10-13T10:21:05;99475.50;;;12.19;100.00
38289;BME280;24092;53.370;-6.588;2023-10-13T10:23:32;99479.07;;;12.66;100.00
38289;BME280;24092;53.370;-6.588;2023-10-13T10:26:09;99482.21;;;10.78;100.00
38289;BME280;24092;53.370;-6.588;2023-10-13T10:28:37;99485.95;;;11.19;100.00
38289;BME280;24092;53.370;-6.588;2023-10-13T10:31:05;99489.70;;;9.63;100.00
38289;BME280;24092;53.370;-6.588;2023-10-13T10:33:32;99494.54;;;9.36;100.00
38289;BME280;24092;53.370;-6.588;2023-10-13T10:36:00;99492.76;;;9.97;100.00
38289;BME280;24092;53.370;-6.588;2023-10-13T10:38:28;99487.24;;;9.79;100.00
38289;BME280;24092;53.370;-6.588;2023-10-13T10:40:56;99493.32;;;8.48;100.00
38289;BME280;24092;53.370;-6.588;2023-10-13T10:43:26;99493.72;;;9.02;100.00
38289;BME280;24092;53.370;-6.588;2023-10-13T10:45:53;99497.38;;;9.38;100.00
38289;BME280;24092;53.370;-6.588;2023-10-13T10:48:21;99499.18;;;9.76;100.00
38289;BME280;24092;53.370;-6.588;2023-10-13T10:50:55;99511.32;;;8.27;100.00
38289;BME280;24092;53.370;-6.588;2023-10-13T10:53:23;99502.84;;;10.85;100.00
38289;BME280;24092;53.370;-6.588;2023-10-13T10:55:50;99506.42;;;8.57;100.00
38289;BME280;24092;53.370;-6.588;2023-10-13T10:58:17;99504.84;;;10.12;100.00
38289;BME280;24092;53.370;-6.588;2023-10-13T11:00:44;99506.44;;;9.60;100.00
38289;BME280;24092;53.370;-6.588;2023-10-13T11:03:12;99510.13;;;9.08;100.00
38289;BME280;24092;53.370;-6.588;2023-10-13T11:05:47;99502.11;;;8.16;100.00
38289;BME280;24092;53.370;-6.588;2023-10-13T11:08:22;99502.21;;;10.25;100.00
38289;BME280;24092;53.370;-6.588;2023-10-13T11:10:49;99507.88;;;9.34;100.00
38289;BME280;24092;53.370;-6.588;2023-10-13T11:13:16;99505.13;;;9.96;100.00
38289;BME280;24092;53.370;-6.588;2023-10-13T11:15:44;99510.98;;;9.29;100.00
38289;BME280;24092;53.370;-6.588;2023-10-13T11:18:11;99509.59;;;8.93;100.00
38289;BME280;24092;53.370;-6.588;2023-10-13T11:20:42;99512.54;;;9.40;100.00
38289;BME280;24092;53.370;-6.588;2023-10-13T11:23:11;99515.65;;;7.29;100.00
38289;BME280;24092;53.370;-6.588;2023-10-13T11:25:38;99521.56;;;9.06;100.00
38289;BME280;24092;53.370;-6.588;2023-10-13T11:28:14;99524.11;;;8.25;100.00
38289;BME280;24092;53.370;-6.588;2023-10-13T11:30:41;99516.33;;;6.86;100.00
38289;BME280;24092;53.370;-6.588;2023-10-13T11:33:10;99528.38;;;9.02;100.00
38289;BME280;24092;53.370;-6.588;2023-10-13T11:35:39;99528.66;;;9.69;100.00
38289;BME280;24092;53.370;-6.588;2023-10-13T11:38:06;99534.70;;;7.69;100.00
38289;BME280;24092;53.370;-6.588;2023-10-13T11:40:33;99527.15;;;7.17;100.00
38289;BME280;24092;53.370;-6.588;2023-10-13T11:43:00;99531.77;;;7.10;100.00
38289;BME280;24092;53.370;-6.588;2023-10-13T11:45:28;99525.28;;;7.15;100.00
38289;BME280;24092;53.370;-6.588;2023-10-13T11:47:55;99532.70;;;9.38;100.00
38289;BME280;24092;53.370;-6.588;2023-10-13T11:50:22;99531.76;;;8.75;100.00
38289;BME280;24092;53.370;-6.588;2023-10-13T11:52:49;99532.50;;;7.83;100.00
38289;BME280;24092;53.370;-6.588;2023-10-13T11:55:16;99536.47;;;7.96;100.00
38289;BME280;24092;53.370;-6.588;2023-10-13T11:57:43;99529.16;;;8.53;100.00
38289;BME280;24092;53.370;-6.588;2023-10-13T12:00:11;99536.99;;;7.15;100.00
38289;BME280;24092;53.370;-6.588;2023-10-13T12:02:38;99539.21;;;7.40;100.00
38289;BME280;24092;53.370;-6.588;2023-10-13T12:05:06;99530.99;;;8.44;100.00
38289;BME280;24092;53.370;-6.588;2023-10-13T12:07:34;99539.65;;;9.23;100.00
38289;BME280;24092;53.370;-6.588;2023-10-13T12:10:00;99532.86;;;9.05;100.00
38289;BME280;24092;53.370;-6.588;2023-10-13T12:12:29;99528.58;;;8.53;100.00
38289;BME280;24092;53.370;-6.588;2023-10-13T12:14:56;99527.39;;;7.15;100.00
38289;BME280;24092;53.370;-6.588;2023-10-13T12:17:25;99527.31;;;7.09;100.00
38289;BME280;24092;53.370;-6.588;2023-10-13T12:19:52;99527.40;;;6.60;100.00
38289;BME280;24092;53.370;-6.588;2023-10-13T12:22:19;99532.34;;;6.94;100.00
38289;BME280;24092;53.370;-6.588;2023-10-13T12:24:46;99538.49;;;8.94;100.00
38289;BME280;24092;53.370;-6.588;2023-10-13T12:27:13;99531.09;;;8.29;100.00
38289;BME280;24092;53.370;-6.588;2023-10-13T12:29:40;99529.90;;;9.21;100.00
38289;BME280;24092;53.370;-6.588;2023-10-13T12:32:07;99530.24;;;7.64;100.00
38289;BME280;24092;53.370;-6.588;2023-10-13T12:34:35;99532.96;;;8.80;100.00
38289;BME280;24092;53.370;-6.588;2023-10-13T12:37:03;99530.41;;;10.07;100.00
38289;BME280;24092;53.370;-6.588;2023-10-13T12:39:31;99527.47;;;11.04;100.00
38289;BME280;24092;53.370;-6.588;2023-10-13T12:41:57;99530.46;;;8.24;100.00
38289;BME280;24092;53.370;-6.588;2023-10-13T12:44:24;99534.73;;;6.67;100.00
38289;BME280;24092;53.370;-6.588;2023-10-13T12:46:51;99534.10;;;7.13;100.00
38289;BME280;24092;53.370;-6.588;2023-10-13T12:49:19;99535.19;;;8.41;100.00
38289;BME280;24092;53.370;-6.588;2023-10-13T12:51:46;99529.80;;;7.51;100.00